Timeline UpdatesTrip UpdatesNews PostsPvt PostsTravel TipsAdmin PostsConv PostsFollowed PostsChat RequestsBlog PostsPNR Posts

Disclaimer
Search
 
 
Tue Sep 23, 2014 17:51:08 ISTHomeTrainsΣChainsAtlasPNRForumGalleryNewsFAQTripsMembersLoginFeedback
No Recent News for this Train
Other Trains in the News **new
Latest...
.
Fri Dec 13, 2013 (03:40PM)
⇐ Return Journey: Train# 12833

12834/Howrah - Ahmedabad SF Express

Time-Table HAS CHANGED.
Sep 03 (10:29AM)
Change Departure Station:
Change Arrival Station:
Post a Train Travel TipPost a Train Travel Tip **new
Post a Comment/Question/Picture/VideoPost a Comment/Question/Picture/Video
Pantry/Catering
✓ Pantry Car Avbl
✓ Catering Avbl
RSA - Rake Sharing
Rake/Coach Composition
LOCO(SRC WAP 4E)-SLR-GEN-S1-S2-S3-S4-S5-S6-S7-S8-S9-S10-S11-S12-PC-S13-B1-B2-A1-A2-GEN-SLR
Loco
Loco: SRC WAP 4 ... Entry# 289462
News    PNR    Forum    Time-Table    Availability    Fare Chart    Map    Arr/Dep History    Trips    Gallery    ΣChains    X/O    Timeline    
Travel Time: 3h 2m    4 halts    Distance: 170 km    Avg Speed: 56 km/hr
Type: SuperFast
Zone: SER/South Eastern
Departs @ 09:58 (Avg 39m late)
Platform# 3
SMTWTFS
Bharuch Junction/BH 
Arrives @ 13:00 (Avg 26m late)
Platform# 6
SMTWTFS
Ahmedabad Junction/ADI 

4 halts. 34 intermediate Stations between Bharuch Junction and Ahmedabad Junction

Show ALL intermediate Stations  Show Old Time-Table

#CodeStation NameX/OArrivesAvgDepartsAvgHaltPFDay#KmSpeedElevZoneAddress
1HWHKolkata Howrah Junction (23)  -23:55+3221-1917.96510mERHowrah 711101, West Bengal
2MCAMecheda (6)  00:50 00:49+1100:52 00:50+182 1m--2-1859.63710mSERdist - purba Medinipur, West Bengal
3PKUPanskura Junction (6)  01:13 01:10+1001:15 01:13+112 3m--2-1847.2579mSERPanskura, West Bengal
4KGPKharagpur Junction (10)  02:00+802:05+85m32-1802.87742mSERKharagpur, West Bengal
5TATATatanagar Junction (5)XO  03:50+1703:55+185m--2-1667.867164mSER91-657-2423026, Jharkhand
6CKPChakradharpur (3)  04:50 04:51+2004:57 04:58+197m12-1605.579235mSERChakradharpur (West Singhbhum), Jharkhand
7ROURourkela Junction (5)X  06:15+2406:30+2415m32-1504.464198mSERRourkela, Odisha
8GPRaj Gangpur (3)  06:59 06:58+2407:00 06:59+251m12-1474.672237mSERRaj Ganpur, Odisha
9BMBBamra (3)  07:29 07:28+3207:30 07:29+331m--2-1440.056259mSERBamra PH : 06642-229268, Odisha
10JSGJharsuguda Junction (5)X  08:08+2908:10+312m--2-1403.588236mSERJharsuguda, Odisha
11BRJNBrajrajnagar  08:18+3908:20+392m--2-1391.867212mSECRBrajrajnagar, Odisha
12BPHBelpahar  08:28+3908:30+392m--2-1382.985 SECRBelpahar, Odisha
13RIGRaigarh (3)X  09:06+4109:11+415m--2-1331.893220mSECRRaigarh, Chhattisgarh
14KHSKharsiaX  09:33+5109:35+512m--2-1297.991 SECRNational Highway 200, Chhattisgarh
15BUABaradwarX  09:55+5809:57+582m--2-1267.655 SECRJanjgir-Champa, Chhattisgarh
16CPHChampa Junction (3)X  10:14+5810:19+565m32-1252.172264mSECRNational Highway 200 (07819-245767), Chhattisgarh
17NIANailaX  10:28+5810:30+582m--2-1241.275273mSECRJanjgir, Chhattisgarh
18AKTAkaltara (4)  10:42+5810:44+572m--2-1226.329284mSECRDist. Janjgir Champa, Chhattisgarh
19BSPBilaspur Junction (8)X  11:40+2811:55+3515m22-1199.177271mSECRBilaspur, Chhattisgarh
20BYTBhatapara (4)X  12:31+3912:33+392m22-1152.987270mSECRBanjari Road, Chhattisgarh
21TLDTilda (3)X  12:51+3812:53+382m--2-1126.855 SECRBanjari Rd, Chhattisgarh
22RRaipur Junction (6)X  13:35+3613:45+3510m52-1088.780297mSECRRaipur, Chhattisgarh
23BPHBBhilai Power House (3)XO  14:06+1814:08+182m12-1060.717312mSECRBhilai, Chhattisgarh
24DURGDurg Junction (6)X  14:40+2714:45+295m42-1051.787299mSECRPh: 91-788-2322059, Chhattisgarh
25RJNRaj Nandgaon (3)  15:06+3615:08+362m--2-1021.286313mSECRRajnandgaon, Chhattisgarh
26DGGDongargarh (2)  15:30+4215:32+432m12-989.776 SECRDongargarh, Chhattisgarh
27AGNAmgaon (2)X  16:12+4816:14+482m--2-939.247317mSECRGondia, Maharashtra
28GGondia Junction (7)X  16:43+4116:48+415m22-916.492316mSECRGondia 441601, Maharashtra
29TROTirora (3)  17:07+4417:09+432m--2-887.172282mSECRDist Gondia, Maharashtra
30TMRTumsar Road (3)  17:26+4017:28+402m--2-866.872267mSECRBhandara, Maharashtra
31BRDBhandara Road (3)X  17:43+4017:45+402m22-848.893266mSECRState Highway 252 Bhandara District, Maharashtra
32KPKamptee (3)X  18:16+4418:18+442m--2-800.920290mSECRKamptee, Maharashtra
33NGPNagpur Junction (8)X  19:00+3519:10+3710m32-786.620314mCRNagpur 440001, Maharashtra
34AJNIAjni (3)X  19:19+4219:20+421m32-783.571310mCRNagpur 440003, Maharashtra
35WRWardha Junction (4)X  20:24+4020:27+403m12-707.781289mCRWardha 442001, Maharashtra
36PLOPulgaon Junction (3)  20:49+4020:50+411m22-678.167273mCRPulgaon, Maharashtra
37DMNDhamangaon (2)  21:08+4021:09+421m--2-658.267300mCRDhamangaon, Maharashtra
38CNDChandur (2)X  21:24+4221:25+421m--2-641.538331mCRAmravati Distt, Maharashtra
39BDBadnera Junction (4)X  22:10+3322:15+345m12-612.886335mCRBadnera (Amravati) 444701, Maharashtra
40MZRMurtizapur (3)X  22:44+4022:45+421m--2-570.974303mCRMurtajapur, Maharashtra
41AKAkola Junction (7)  23:15+4623:20+475m12-533.893284mCRAkola-444001, Maharashtra
42SEGShegaon (2)  23:44+4923:45+501m22-496.668281mCRShegaon 444203, Maharashtra
43JMJalamb Junction (3)  23:56+4923:58+502m12-484.267259mCRJalamb, Maharashtra
44NNNandura (2)  00:09+4900:10+521m13-472.070267mCRNandura, Maharashtra
45MKUMalkapur (2)  00:34+4900:35+511m23-444.150252mCRMalkapur, Maharashtra
46BSLBhusaval Junction (8)XO  01:35+4201:45+4310m43-394.241208mCRBhusaval 425201, Maharashtra
47JLJalgaon Junction (4)X  02:20+3202:25+325m23-370.151213mCRJalgaon 425001, Maharashtra
48DXGDharangaon (2)  03:00+4003:01+411m13-340.351217mWRDharangaon, Maharashtra
49ANAmalner (2)  03:30+3703:33+363m13-315.473188mWRAmalner, Maharashtra
50SNKSindkheda (1)  04:07+4304:08+441m13-273.945178mWRState Highway 11, Maharashtra
51DDEDondaicha (2)X  04:34+3904:35+401m23-254.549163mWRDondaicha, Maharashtra
52NDBNandurbar (3)  05:17+3405:25+348m13-220.150203mWRNandurbar, Maharashtra
53NWUNavapur (2)  06:35+2606:37+292m--3-162.255124mWRNavapur, Gujarat
54VYAVyara (2)X  07:23+2807:25+282m13-120.26090mWRVyara, Gujarat
55MIDMadhi (1)  07:40+3007:42+292m13-105.35945mWRMadhi, Gujarat
56BIYBardoli (2)X  07:57+3107:59+312m--3-90.53735mWRNear Bardoli Sugar Factory Bardoli, Gujarat
57UDNUdhna Junction (3)XO  08:43+2108:45+222m13-63.31416mWRUdhna 394210, Gujarat
58STSurat (4)X  09:02+1909:12+1910m23-59.38119mWRSurat 395001, Gujarat
59BHBharuch Junction (5)»X  09:56+3909:58+392m330.07419mWRBharuch, Gujarat
60BRCVadodara Junction (7)X  10:55+4211:00+425m3370.57236mWRVadodara 390005, Gujarat
61ANNDAnand Junction (6)  11:30+2711:32+272m23106.35344mWRAnand, Gujarat
62NDNadiad Junction (4)X  11:53+3411:55+342m--3124.85837mWRNadiad, Gujarat
63MANManinagar (2)X  12:39+1412:41+142m13167.21050mWRAhmadabad, Gujarat
64ADIAhmedabad Junction (12)•  13:00+26-63170.3-51mWRAhmedabad, Gujarat
Scroll to Top
Scroll to Bottom